Time;durP1;ratioP1;P1;durP2;ratioP2;P2;SDS_P1;SDS_P2;PMS_P1;PMS_P2;Temp;Humidity;BMP_temperature;BMP_pressure;BME280_temperature;BME280_humidity;BME280_pressure;Samples;Min_cycle;Max_cycle;Signal;HPM_P1;HPM_P2
2021/05/24 00:02:15;;;;;;;2.17;1.50;;;8.50;99.90;;;;;;5074626;28;20838;-58
2021/05/24 00:04:43;;;;;;;2.97;1.60;;;8.40;99.90;;;;;;5074824;28;20299;-57
2021/05/24 00:07:09;;;;;;;4.57;1.80;;;8.30;99.90;;;;;;5075102;28;20615;-57
2021/05/24 00:09:35;;;;;;;2.67;1.90;;;8.30;99.90;;;;;;5074878;28;20212;-57
2021/05/24 00:12:03;;;;;;;2.50;1.60;;;8.30;99.90;;;;;;5075370;28;20229;-57
2021/05/24 00:14:29;;;;;;;4.60;1.60;;;8.20;99.90;;;;;;5074697;28;20345;-57
2021/05/24 00:16:56;;;;;;;4.17;1.80;;;8.20;99.90;;;;;;5074783;28;20580;-57
2021/05/24 00:19:22;;;;;;;3.67;1.47;;;8.20;99.90;;;;;;5074779;28;20228;-57
2021/05/24 00:21:49;;;;;;;2.40;1.57;;;8.20;99.90;;;;;;5074699;28;20712;-57
2021/05/24 00:24:16;;;;;;;2.50;1.90;;;8.20;99.90;;;;;;5074811;28;20213;-57
2021/05/24 00:26:42;;;;;;;2.23;1.47;;;8.20;99.90;;;;;;5074464;28;20220;-57
2021/05/24 00:29:14;;;;;;;2.30;1.40;;;8.10;99.90;;;;;;5074111;28;20201;-57
2021/05/24 00:31:40;;;;;;;4.40;1.70;;;8.10;99.90;;;;;;5074028;28;20319;-57
2021/05/24 00:34:07;;;;;;;5.73;1.80;;;8.10;99.90;;;;;;5074278;28;20216;-57
2021/05/24 00:36:33;;;;;;;3.13;1.60;;;8.00;99.90;;;;;;5074229;28;20205;-57
2021/05/24 00:39:00;;;;;;;3.33;1.70;;;8.00;99.90;;;;;;5074217;28;20216;-57
2021/05/24 00:41:26;;;;;;;3.00;1.50;;;7.90;99.90;;;;;;5074115;28;20240;-56
2021/05/24 00:43:53;;;;;;;3.77;1.60;;;7.90;99.90;;;;;;5074009;28;20405;-56
2021/05/24 00:46:19;;;;;;;3.00;1.60;;;7.90;99.90;;;;;;5074212;28;20704;-57
2021/05/24 00:48:46;;;;;;;4.83;1.70;;;7.90;99.90;;;;;;5074252;28;20213;-56
2021/05/24 00:51:12;;;;;;;2.30;1.50;;;7.90;99.90;;;;;;5074242;28;20235;-57
2021/05/24 00:53:38;;;;;;;5.27;1.70;;;8.00;99.90;;;;;;5074497;28;20263;-56
2021/05/24 00:56:05;;;;;;;4.30;1.53;;;8.10;99.90;;;;;;5074736;28;20216;-56
2021/05/24 00:58:32;;;;;;;3.57;1.80;;;8.10;99.90;;;;;;5073835;28;20205;-57
2021/05/24 01:00:58;;;;;;;4.60;1.67;;;8.20;99.90;;;;;;5074203;28;20728;-57
2021/05/24 01:03:25;;;;;;;2.87;1.80;;;8.30;99.90;;;;;;5073951;28;20209;-56
2021/05/24 01:05:51;;;;;;;3.13;1.90;;;8.30;99.90;;;;;;5073396;28;20211;-56
2021/05/24 01:08:17;;;;;;;1.60;1.33;;;8.40;99.90;;;;;;5072853;28;20255;-57
2021/05/24 01:10:44;;;;;;;2.90;1.40;;;8.40;99.90;;;;;;5073362;28;20216;-57
2021/05/24 01:13:13;;;;;;;1.43;1.33;;;8.40;99.90;;;;;;5073361;28;20208;-56
2021/05/24 01:15:40;;;;;;;5.00;1.93;;;8.40;99.90;;;;;;5073325;28;20213;-57
2021/05/24 01:18:07;;;;;;;5.03;1.70;;;8.40;99.90;;;;;;5073153;28;20300;-57
2021/05/24 01:20:33;;;;;;;3.17;1.20;;;8.50;99.90;;;;;;5073020;28;20212;-57
2021/05/24 01:23:07;;;;;;;3.17;1.43;;;8.50;99.90;;;;;;5073404;28;20208;-57
2021/05/24 01:25:36;;;;;;;1.73;1.30;;;8.60;99.90;;;;;;5073226;28;20204;-57
2021/05/24 01:28:04;;;;;;;2.73;1.57;;;8.60;99.90;;;;;;5073190;28;20201;-57
2021/05/24 01:30:31;;;;;;;3.00;1.47;;;8.70;99.90;;;;;;5073259;28;20228;-57
2021/05/24 01:32:57;;;;;;;3.93;1.50;;;8.70;99.90;;;;;;5073050;28;20208;-57
2021/05/24 01:35:24;;;;;;;2.27;1.57;;;8.80;99.90;;;;;;5072676;28;20250;-57
2021/05/24 01:37:50;;;;;;;4.63;1.67;;;8.70;99.90;;;;;;5072811;28;20673;-57
2021/05/24 01:40:19;;;;;;;3.30;1.83;;;8.70;99.90;;;;;;5072962;28;20210;-57
2021/05/24 01:42:46;;;;;;;6.60;1.57;;;8.70;99.90;;;;;;5072618;28;20243;-57
2021/05/24 01:45:13;;;;;;;3.10;1.73;;;8.60;99.90;;;;;;5072849;28;20205;-57
2021/05/24 01:47:43;;;;;;;2.83;1.63;;;8.60;99.90;;;;;;5072756;28;20205;-57
2021/05/24 01:50:10;;;;;;;3.90;1.40;;;8.60;99.90;;;;;;5072649;28;20224;-57
2021/05/24 01:52:36;;;;;;;2.53;1.53;;;8.60;99.90;;;;;;5072931;28;20225;-57
2021/05/24 01:55:04;;;;;;;1.97;1.23;;;8.70;99.90;;;;;;5072458;28;20209;-57
2021/05/24 01:57:31;;;;;;;7.90;1.40;;;8.60;99.90;;;;;;5073060;28;20593;-57
2021/05/24 01:59:57;;;;;;;2.20;1.47;;;8.40;99.90;;;;;;5072937;28;20216;-57
2021/05/24 02:02:23;;;;;;;2.63;1.50;;;8.20;99.90;;;;;;5072980;28;20233;-57
2021/05/24 02:04:49;;;;;;;2.73;1.50;;;8.00;99.90;;;;;;5072448;28;20212;-57
2021/05/24 02:07:16;;;;;;;2.00;1.50;;;8.00;99.90;;;;;;5072477;28;20581;-57
2021/05/24 02:09:43;;;;;;;3.17;1.47;;;8.00;99.90;;;;;;5072144;28;20205;-57
2021/05/24 02:12:10;;;;;;;3.87;1.37;;;8.10;99.90;;;;;;5072437;28;20228;-57
2021/05/24 02:14:37;;;;;;;2.57;1.50;;;8.10;99.90;;;;;;5072295;28;20209;-57
2021/05/24 02:17:03;;;;;;;5.17;1.50;;;8.10;99.90;;;;;;5072297;28;20216;-57
2021/05/24 02:19:30;;;;;;;4.33;1.60;;;8.10;99.90;;;;;;5072136;28;20209;-58
2021/05/24 02:21:56;;;;;;;2.00;1.17;;;8.10;99.90;;;;;;5071955;28;20238;-58
2021/05/24 02:24:22;;;;;;;4.67;1.70;;;8.10;99.90;;;;;;5071986;28;20235;-58
2021/05/24 02:26:48;;;;;;;2.13;1.10;;;8.20;99.90;;;;;;5072015;28;20459;-58
2021/05/24 02:29:14;;;;;;;4.60;1.47;;;8.30;99.90;;;;;;5071962;28;20209;-57
2021/05/24 02:31:41;;;;;;;4.90;1.70;;;8.40;99.90;;;;;;5071763;28;20235;-57
2021/05/24 02:34:08;;;;;;;3.63;1.73;;;8.50;99.90;;;;;;5071857;28;20258;-58
2021/05/24 02:36:36;;;;;;;7.47;1.90;;;8.60;99.90;;;;;;5071715;28;20209;-58
2021/05/24 02:39:05;;;;;;;2.57;1.90;;;8.60;99.90;;;;;;5071760;28;20209;-58
2021/05/24 02:41:31;;;;;;;5.27;1.80;;;8.60;99.90;;;;;;5071750;28;20366;-58
2021/05/24 02:43:57;;;;;;;3.03;1.73;;;8.60;99.90;;;;;;5071614;28;20227;-58
2021/05/24 02:46:24;;;;;;;2.10;1.77;;;8.70;99.90;;;;;;5071637;28;20212;-58
2021/05/24 02:48:51;;;;;;;4.23;2.03;;;8.70;99.90;;;;;;5071465;28;20211;-56
2021/05/24 02:51:17;;;;;;;3.37;1.67;;;8.70;99.90;;;;;;5071522;28;20228;-55
2021/05/24 02:53:43;;;;;;;2.43;1.50;;;8.80;99.90;;;;;;5071354;28;20669;-57
2021/05/24 02:56:09;;;;;;;2.90;1.57;;;8.80;99.90;;;;;;5071565;28;20269;-57
2021/05/24 02:58:35;;;;;;;2.90;1.60;;;8.80;99.90;;;;;;5071547;28;20215;-56
2021/05/24 03:01:02;;;;;;;3.83;1.40;;;8.80;99.90;;;;;;5071660;28;20271;-57
2021/05/24 03:03:30;;;;;;;2.03;1.43;;;8.90;99.90;;;;;;5071542;28;20258;-57
2021/05/24 03:05:57;;;;;;;2.03;1.13;;;8.90;99.90;;;;;;5071307;28;20680;-57
2021/05/24 03:08:23;;;;;;;3.20;1.10;;;8.90;99.90;;;;;;5071224;28;20208;-56
2021/05/24 03:10:49;;;;;;;2.10;1.20;;;8.90;99.90;;;;;;5071285;28;20770;-57
2021/05/24 03:13:16;;;;;;;2.10;1.70;;;8.90;99.90;;;;;;5070677;28;20209;-56
2021/05/24 03:15:42;;;;;;;1.40;1.30;;;9.00;99.90;;;;;;5071172;28;20208;-56
2021/05/24 03:18:08;;;;;;;3.43;1.50;;;8.90;99.90;;;;;;5071291;28;20209;-56
2021/05/24 03:20:34;;;;;;;2.33;1.57;;;9.00;99.90;;;;;;5071302;28;20205;-57
2021/05/24 03:23:01;;;;;;;2.43;1.27;;;9.10;99.90;;;;;;5071085;28;20254;-56
2021/05/24 03:25:28;;;;;;;1.93;1.47;;;9.20;99.90;;;;;;5071034;28;20204;-57
2021/05/24 03:27:54;;;;;;;4.77;1.40;;;9.20;99.90;;;;;;5070761;28;20704;-56
2021/05/24 03:30:20;;;;;;;2.30;1.60;;;9.20;99.90;;;;;;5070725;28;20224;-57
2021/05/24 03:32:47;;;;;;;5.67;1.40;;;9.30;99.90;;;;;;5071471;28;20225;-57
2021/05/24 03:35:13;;;;;;;2.50;1.37;;;9.30;99.90;;;;;;5070851;28;20200;-57
2021/05/24 03:37:40;;;;;;;2.87;1.57;;;9.30;99.90;;;;;;5070808;28;20200;-57
2021/05/24 03:40:09;;;;;;;3.47;1.60;;;9.30;99.90;;;;;;5070715;28;20683;-57
2021/05/24 03:42:35;;;;;;;3.10;1.97;;;9.30;99.90;;;;;;5071065;28;20240;-57
2021/05/24 03:45:03;;;;;;;2.93;1.63;;;9.30;99.90;;;;;;5070717;28;20215;-57
2021/05/24 03:47:29;;;;;;;2.43;1.30;;;9.30;99.90;;;;;;5070888;28;20589;-57
2021/05/24 03:49:55;;;;;;;2.07;1.70;;;9.30;99.90;;;;;;5070596;28;20208;-57
2021/05/24 03:52:22;;;;;;;8.47;1.83;;;9.30;99.90;;;;;;5070653;28;20229;-57
2021/05/24 03:54:48;;;;;;;3.30;1.53;;;9.30;99.90;;;;;;5070945;28;20232;-57
2021/05/24 03:57:15;;;;;;;2.60;1.33;;;9.40;99.90;;;;;;5070929;28;20246;-58
2021/05/24 03:59:41;;;;;;;2.80;1.60;;;9.40;99.90;;;;;;5070705;28;20209;-57
2021/05/24 04:02:08;;;;;;;3.67;1.70;;;9.40;99.90;;;;;;5070657;28;20220;-58
2021/05/24 04:04:34;;;;;;;2.97;1.60;;;9.40;99.90;;;;;;5070630;28;20205;-57
2021/05/24 04:07:03;;;;;;;4.80;1.60;;;9.50;99.90;;;;;;5070666;28;20201;-57
2021/05/24 04:09:29;;;;;;;1.37;1.27;;;9.50;99.90;;;;;;5070427;28;20753;-57
2021/05/24 04:11:55;;;;;;;3.30;1.50;;;9.60;99.90;;;;;;5070548;28;20274;-58
2021/05/24 04:14:22;;;;;;;4.33;1.50;;;9.60;99.90;;;;;;5070752;28;20212;-58
2021/05/24 04:16:48;;;;;;;2.80;1.57;;;9.60;99.90;;;;;;5070554;28;20677;-58
2021/05/24 04:19:15;;;;;;;4.27;1.87;;;9.70;99.90;;;;;;5070511;28;20255;-58
2021/05/24 04:21:43;;;;;;;2.00;1.73;;;9.80;99.90;;;;;;5070549;28;20708;-58
2021/05/24 04:24:11;;;;;;;2.13;1.60;;;9.80;99.90;;;;;;5070906;28;20209;-58
2021/05/24 04:26:38;;;;;;;2.03;1.40;;;9.80;99.90;;;;;;5071147;28;20288;-58
2021/05/24 04:29:04;;;;;;;5.67;1.70;;;9.90;99.90;;;;;;5070429;28;20267;-58
2021/05/24 04:31:31;;;;;;;4.40;2.17;;;10.00;99.90;;;;;;5070647;28;20233;-58
2021/05/24 04:33:58;;;;;;;4.83;1.90;;;10.10;99.90;;;;;;5070916;28;20208;-57
2021/05/24 04:36:24;;;;;;;4.23;1.80;;;10.10;99.90;;;;;;5070554;28;20209;-57
2021/05/24 04:38:50;;;;;;;5.40;2.13;;;10.20;99.90;;;;;;5070304;28;20205;-58
2021/05/24 04:41:16;;;;;;;4.30;2.50;;;10.10;99.90;;;;;;5070655;28;20241;-57
2021/05/24 04:43:43;;;;;;;2.80;1.73;;;10.10;99.90;;;;;;5074100;28;20224;-57
2021/05/24 04:46:09;;;;;;;4.03;2.33;;;10.20;99.90;;;;;;5073998;28;20224;-57
2021/05/24 04:48:36;;;;;;;4.10;2.10;;;10.30;99.90;;;;;;5073761;28;20213;-57
2021/05/24 04:51:03;;;;;;;2.93;2.00;;;10.40;99.90;;;;;;5074021;28;20708;-58
2021/05/24 04:53:30;;;;;;;3.80;2.70;;;10.50;99.90;;;;;;5074861;28;20208;-57
2021/05/24 04:55:56;;;;;;;4.13;2.63;;;10.60;99.90;;;;;;5074638;28;20209;-58
2021/05/24 04:58:22;;;;;;;2.80;1.83;;;10.70;99.90;;;;;;5073758;28;20228;-57
2021/05/24 05:00:49;;;;;;;3.43;2.50;;;10.80;99.90;;;;;;5073695;28;20205;-57
2021/05/24 05:03:16;;;;;;;5.40;2.90;;;10.90;99.90;;;;;;5073543;28;20209;-57
2021/05/24 05:05:43;;;;;;;3.77;2.40;;;10.90;99.90;;;;;;5073690;28;20201;-57
2021/05/24 05:08:09;;;;;;;4.67;2.87;;;11.00;99.90;;;;;;5073586;28;20278;-58
2021/05/24 05:10:36;;;;;;;3.23;2.33;;;11.00;99.90;;;;;;5073518;28;20232;-57
2021/05/24 05:13:03;;;;;;;3.53;2.67;;;11.10;99.90;;;;;;5073551;28;20209;-57
2021/05/24 05:15:29;;;;;;;4.47;3.17;;;11.30;99.90;;;;;;5073288;28;20205;-58
2021/05/24 05:17:55;;;;;;;4.60;2.37;;;11.40;99.90;;;;;;5073589;28;20212;-58
2021/05/24 05:20:22;;;;;;;4.60;3.10;;;11.60;99.90;;;;;;5073280;28;20681;-57
2021/05/24 05:22:49;;;;;;;8.07;1.93;;;11.70;99.90;;;;;;5073227;28;20228;-58
2021/05/24 05:25:16;;;;;;;2.17;1.60;;;11.80;99.90;;;;;;5073121;28;20716;-57
2021/05/24 05:27:42;;;;;;;3.43;2.10;;;11.90;99.90;;;;;;5073379;28;20201;-58
2021/05/24 05:30:10;;;;;;;2.37;1.90;;;12.10;99.90;;;;;;5073006;28;20692;-57
2021/05/24 05:32:36;;;;;;;2.77;1.50;;;12.20;99.90;;;;;;5073381;28;20259;-58
2021/05/24 05:35:03;;;;;;;3.03;1.80;;;12.40;99.90;;;;;;5073470;28;20201;-58
2021/05/24 05:37:29;;;;;;;5.30;2.70;;;12.60;99.90;;;;;;5073412;28;20209;-58
2021/05/24 05:39:57;;;;;;;5.07;1.80;;;12.60;99.90;;;;;;5073315;28;20266;-58
2021/05/24 05:42:24;;;;;;;4.57;2.17;;;12.70;99.90;;;;;;5073359;28;20244;-58
2021/05/24 05:44:50;;;;;;;8.40;5.30;;;12.70;99.90;;;;;;5073178;28;20677;-58
2021/05/24 05:47:17;;;;;;;3.07;1.90;;;12.80;99.90;;;;;;5073108;28;20205;-58
2021/05/24 05:49:47;;;;;;;5.17;2.23;;;12.90;99.90;;;;;;5072847;28;20205;-58
2021/05/24 05:52:15;;;;;;;4.07;1.77;;;12.80;99.90;;;;;;5072484;28;20228;-58
2021/05/24 05:54:42;;;;;;;3.23;1.90;;;12.70;99.90;;;;;;5072957;28;20253;-57
2021/05/24 05:57:09;;;;;;;3.37;2.10;;;12.50;99.90;;;;;;5072573;28;20204;-57
2021/05/24 05:59:35;;;;;;;3.10;1.70;;;12.30;99.90;;;;;;5072569;28;20213;-59
2021/05/24 06:02:01;;;;;;;1.90;1.60;;;12.30;99.90;;;;;;5072651;28;20217;-59
2021/05/24 06:04:27;;;;;;;6.97;1.87;;;12.40;99.90;;;;;;5072469;28;20201;-59
2021/05/24 06:06:53;;;;;;;3.80;1.97;;;12.60;99.90;;;;;;5073021;28;20581;-57
2021/05/24 06:09:20;;;;;;;2.27;1.70;;;12.80;99.90;;;;;;5072972;28;20239;-58
2021/05/24 06:11:47;;;;;;;3.00;1.80;;;13.00;99.90;;;;;;5073053;28;20274;-58
2021/05/24 06:14:14;;;;;;;2.70;1.97;;;13.30;99.90;;;;;;5072431;28;20216;-58
2021/05/24 06:16:40;;;;;;;3.40;2.13;;;13.50;99.90;;;;;;5072972;28;20227;-59
2021/05/24 06:19:07;;;;;;;3.63;2.03;;;13.70;99.90;;;;;;5072103;28;20668;-58
2021/05/24 06:21:33;;;;;;;3.47;2.30;;;13.80;99.90;;;;;;5071999;28;20282;-58
2021/05/24 06:23:59;;;;;;;5.73;2.70;;;14.00;99.90;;;;;;5071942;28;20212;-58
2021/05/24 06:26:25;;;;;;;3.80;2.97;;;14.20;99.90;;;;;;5071987;28;20208;-58
2021/05/24 06:28:51;;;;;;;5.40;3.17;;;14.40;99.90;;;;;;5071994;28;20216;-59
2021/05/24 06:31:18;;;;;;;5.00;3.20;;;14.70;99.70;;;;;;5071965;28;20290;-58
2021/05/24 06:33:45;;;;;;;4.77;3.10;;;15.10;99.30;;;;;;5071830;28;20216;-58
2021/05/24 06:36:11;;;;;;;4.37;3.13;;;15.50;98.60;;;;;;5072209;28;20209;-58
2021/05/24 06:38:37;;;;;;;10.63;7.00;;;15.90;98.10;;;;;;5071717;28;20201;-58
2021/05/24 06:41:03;;;;;;;5.40;2.33;;;16.30;97.00;;;;;;5071537;28;20252;-58
2021/05/24 06:43:30;;;;;;;7.23;2.83;;;16.60;96.50;;;;;;5071863;28;20213;-58
2021/05/24 06:45:56;;;;;;;5.40;3.20;;;16.80;95.40;;;;;;5071944;28;20209;-57
2021/05/24 06:48:23;;;;;;;5.13;2.63;;;16.90;95.40;;;;;;5072138;28;20212;-58
2021/05/24 06:50:49;;;;;;;3.30;2.30;;;17.00;95.20;;;;;;5071739;28;20225;-58
2021/05/24 06:53:16;;;;;;;4.03;2.47;;;17.30;94.90;;;;;;5071774;28;20213;-58
2021/05/24 06:55:42;;;;;;;5.73;2.10;;;17.60;94.60;;;;;;5071879;28;20208;-58
2021/05/24 06:58:08;;;;;;;3.37;2.30;;;17.90;93.20;;;;;;5071590;28;20223;-58
2021/05/24 07:00:34;;;;;;;4.17;1.80;;;18.10;92.50;;;;;;5071379;28;20250;-58
2021/05/24 07:03:01;;;;;;;3.53;1.77;;;18.20;91.60;;;;;;5071299;28;20643;-59
2021/05/24 07:05:28;;;;;;;2.77;1.50;;;18.20;91.50;;;;;;5070406;28;20233;-58
2021/05/24 07:07:54;;;;;;;3.05;1.90;;;18.40;90.80;;;;;;5071088;28;20209;-59
2021/05/24 07:10:21;;;;;;;2.90;1.70;;;18.30;90.70;;;;;;5071494;28;20205;-65
2021/05/24 07:12:47;;;;;;;3.13;1.90;;;18.10;90.00;;;;;;5069762;28;20252;-64
2021/05/24 07:15:14;;;;;;;3.20;2.00;;;17.70;90.60;;;;;;5071057;28;20205;-64
2021/05/24 07:17:40;;;;;;;3.90;1.60;;;17.70;90.10;;;;;;5071341;28;20211;-64
2021/05/24 07:20:07;;;;;;;3.92;1.83;;;17.90;88.40;;;;;;5071349;28;20212;-64
2021/05/24 07:22:36;;;;;;;9.80;6.22;;;18.10;87.90;;;;;;5071047;28;20650;-65
2021/05/24 07:25:03;;;;;;;8.98;5.47;;;19.30;85.80;;;;;;5070803;28;20563;-63
2021/05/24 07:27:29;;;;;;;3.40;2.03;;;20.80;81.40;;;;;;5071025;28;20209;-63
2021/05/24 07:29:55;;;;;;;5.93;2.28;;;22.30;75.20;;;;;;5071278;28;20583;-63
2021/05/24 07:32:21;;;;;;;2.55;1.80;;;23.10;70.50;;;;;;5070939;28;20235;-64
2021/05/24 07:34:48;;;;;;;5.70;1.67;;;23.50;69.70;;;;;;5070830;28;20234;-64
2021/05/24 07:37:14;;;;;;;2.53;1.98;;;23.70;68.20;;;;;;5070911;28;20256;-63
2021/05/24 07:39:41;;;;;;;4.63;1.80;;;23.10;66.80;;;;;;5071087;28;20212;-63
2021/05/24 07:42:09;;;;;;;3.78;2.03;;;22.50;69.40;;;;;;5070988;28;20233;-63
2021/05/24 07:44:35;;;;;;;2.50;1.70;;;22.40;70.20;;;;;;5070824;28;20684;-64
2021/05/24 07:47:03;;;;;;;2.85;1.65;;;22.50;68.50;;;;;;5071041;28;20672;-64
2021/05/24 07:49:30;;;;;;;2.65;1.52;;;22.70;68.10;;;;;;5070812;28;20201;-63
2021/05/24 07:51:57;;;;;;;1.85;1.30;;;22.90;67.40;;;;;;5070837;28;20236;-63
2021/05/24 07:54:24;;;;;;;2.97;1.30;;;23.10;66.50;;;;;;5070750;28;20683;-63
2021/05/24 07:56:51;;;;;;;2.50;1.70;;;23.00;65.60;;;;;;5070804;28;20668;-63
2021/05/24 07:59:17;;;;;;;1.58;1.10;;;22.80;66.40;;;;;;5071132;28;20211;-64
2021/05/24 08:01:43;;;;;;;3.58;1.20;;;22.50;66.10;;;;;;5071283;28;20707;-63
2021/05/24 08:04:10;;;;;;;2.30;1.10;;;21.80;66.50;;;;;;5070739;28;20196;-63
2021/05/24 08:06:36;;;;;;;2.17;1.23;;;20.50;71.30;;;;;;5070571;28;20208;-63
2021/05/24 08:09:03;;;;;;;2.65;1.20;;;19.80;75.00;;;;;;5070572;28;20669;-63
2021/05/24 08:11:30;;;;;;;2.65;1.55;;;19.80;75.80;;;;;;5071049;28;20240;-61
2021/05/24 08:13:57;;;;;;;2.25;1.23;;;20.20;75.40;;;;;;5070906;28;20379;-62
2021/05/24 08:16:23;;;;;;;2.25;1.50;;;20.50;73.30;;;;;;5072851;28;20257;-62
2021/05/24 08:18:50;;;;;;;4.95;2.33;;;20.80;73.40;;;;;;5074797;28;20219;-62
2021/05/24 08:21:17;;;;;;;3.72;1.65;;;21.10;72.90;;;;;;5074859;28;20668;-61
2021/05/24 08:23:44;;;;;;;1.30;1.20;;;21.20;71.90;;;;;;5074247;28;20205;-62
2021/05/24 08:26:11;;;;;;;2.47;1.05;;;21.20;72.90;;;;;;5074841;28;20205;-62
2021/05/24 08:28:37;;;;;;;2.05;1.10;;;21.10;73.60;;;;;;5074328;28;20208;-61
2021/05/24 08:31:04;;;;;;;2.35;1.50;;;21.10;73.60;;;;;;5074339;28;20225;-62
2021/05/24 08:33:31;;;;;;;2.92;1.80;;;21.20;73.70;;;;;;5074201;28;20209;-62
2021/05/24 08:35:58;;;;;;;1.90;0.90;;;21.40;73.50;;;;;;5074688;28;20270;-65
2021/05/24 08:38:24;;;;;;;3.40;1.35;;;21.40;72.80;;;;;;5073729;28;20734;-65
2021/05/24 08:40:51;;;;;;;0.90;0.82;;;21.70;72.80;;;;;;5073406;28;20233;-63
2021/05/24 08:43:17;;;;;;;2.88;1.30;;;22.00;72.30;;;;;;5074011;28;20213;-63
2021/05/24 08:45:44;;;;;;;3.88;1.60;;;22.10;71.60;;;;;;5073994;28;20215;-63
2021/05/24 08:48:12;;;;;;;3.17;1.52;;;22.10;71.60;;;;;;5073761;28;20201;-61
2021/05/24 08:50:40;;;;;;;3.10;1.10;;;21.40;72.90;;;;;;5073471;28;20204;-62
2021/05/24 08:53:08;;;;;;;3.72;2.65;;;21.30;73.70;;;;;;5074703;28;20205;-62
2021/05/24 08:55:36;;;;;;;7.32;5.00;;;21.60;73.70;;;;;;5074219;28;20587;-61
2021/05/24 08:58:02;;;;;;;3.88;1.73;;;22.00;71.50;;;;;;5073680;28;20279;-61
2021/05/24 09:00:28;;;;;;;2.58;1.15;;;22.30;70.90;;;;;;5073837;28;20209;-63
2021/05/24 09:02:57;;;;;;;2.00;1.00;;;22.70;70.30;;;;;;5074539;28;20232;-59
2021/05/24 09:05:29;;;;;;;1.45;0.73;;;23.10;68.40;;;;;;5074067;28;20209;-59
2021/05/24 09:07:57;;;;;;;3.15;0.82;;;23.40;67.70;;;;;;5074134;28;20222;-59
2021/05/24 09:10:26;;;;;;;1.05;0.70;;;23.80;65.70;;;;;;5073806;28;20211;-59
2021/05/24 09:12:53;;;;;;;0.60;0.57;;;24.00;64.30;;;;;;5073554;28;20225;-58
2021/05/24 09:15:21;;;;;;;3.92;1.00;;;24.00;63.50;;;;;;5073362;28;20212;-59
2021/05/24 09:17:49;;;;;;;1.40;0.80;;;24.10;62.90;;;;;;5073537;28;20208;-59
2021/05/24 09:20:33;;;;;;;3.15;0.85;;;24.10;62.90;;;;;;5073664;28;20209;-59
2021/05/24 09:23:12;;;;;;;4.45;0.82;;;24.30;59.60;;;;;;5073522;28;20693;-59
2021/05/24 09:25:57;;;;;;;1.23;0.60;;;24.30;59.30;;;;;;5073538;28;20434;-59
2021/05/24 09:28:28;;;;;;;1.65;0.60;;;24.30;58.20;;;;;;5072937;28;20205;-58
2021/05/24 09:30:56;;;;;;;2.67;1.02;;;24.50;58.10;;;;;;5071173;28;20237;-61
2021/05/24 09:33:23;;;;;;;1.80;0.98;;;24.70;57.70;;;;;;5073124;28;20212;-60
2021/05/24 09:35:51;;;;;;;2.72;0.75;;;25.00;56.80;;;;;;5073764;28;20209;-59
2021/05/24 09:38:18;;;;;;;1.75;0.70;;;25.20;56.70;;;;;;5073247;28;20219;-59
2021/05/24 09:40:51;;;;;;;2.33;0.80;;;25.40;56.20;;;;;;5073596;28;20232;-59
2021/05/24 09:43:18;;;;;;;0.70;0.60;;;25.60;55.60;;;;;;5114424;22;20224;-59
2021/05/24 09:45:44;;;;;;;1.85;0.65;;;25.60;55.80;;;;;;5093421;28;20215;-59
2021/05/24 09:48:10;;;;;;;3.55;0.80;;;25.60;55.20;;;;;;5093111;28;20211;-59
2021/05/24 09:50:37;;;;;;;1.65;0.68;;;25.60;54.80;;;;;;5092722;28;20207;-59
2021/05/24 09:53:04;;;;;;;0.82;0.63;;;25.50;54.90;;;;;;5093083;28;20274;-59
2021/05/24 09:55:30;;;;;;;1.00;0.80;;;25.40;55.30;;;;;;5092892;28;20204;-60
2021/05/24 09:57:58;;;;;;;2.42;1.05;;;25.40;54.40;;;;;;5093074;28;20204;-64
2021/05/24 10:00:29;;;;;;;5.45;3.88;;;25.10;54.70;;;;;;5092634;28;20208;-60
2021/05/24 10:02:56;;;;;;;1.92;1.10;;;25.10;55.50;;;;;;5092669;28;20263;-60
2021/05/24 10:05:36;;;;;;;1.35;0.80;;;25.30;53.80;;;;;;5092373;28;20254;-60
2021/05/24 10:08:05;;;;;;;1.45;0.77;;;25.50;53.30;;;;;;5093052;28;20264;-61
2021/05/24 10:10:31;;;;;;;3.15;0.80;;;25.70;52.80;;;;;;5092275;28;20619;-62
2021/05/24 10:12:59;;;;;;;3.17;1.98;;;26.00;52.50;;;;;;5092744;28;20228;-62
2021/05/24 10:15:25;;;;;;;1.23;0.73;;;26.20;51.80;;;;;;5092823;28;20211;-60
2021/05/24 10:17:58;;;;;;;1.20;0.70;;;26.40;50.90;;;;;;5092569;28;20204;-62
2021/05/24 10:20:24;;;;;;;1.05;0.60;;;26.50;50.80;;;;;;5092810;28;20208;-62
2021/05/24 10:22:51;;;;;;;0.98;0.70;;;26.50;51.10;;;;;;5092644;28;20231;-61
2021/05/24 10:25:18;;;;;;;0.77;0.60;;;26.30;51.40;;;;;;5092434;28;20208;-64
2021/05/24 10:27:45;;;;;;;3.45;0.90;;;26.00;51.00;;;;;;5092374;28;20199;-62
2021/05/24 10:30:12;;;;;;;0.73;0.60;;;25.80;51.50;;;;;;5092306;28;20204;-63
2021/05/24 10:32:52;;;;;;;1.13;0.70;;;25.80;51.20;;;;;;5091959;28;20239;-60
2021/05/24 10:35:31;;;;;;;1.15;0.70;;;25.40;52.00;;;;;;5092406;28;20703;-63
2021/05/24 10:37:58;;;;;;;1.08;0.70;;;25.50;52.80;;;;;;5092441;28;20223;-57
2021/05/24 10:40:25;;;;;;;0.88;0.73;;;25.80;52.50;;;;;;5092632;28;20204;-57
2021/05/24 10:43:07;;;;;;;4.63;3.50;;;25.80;52.20;;;;;;5091923;28;20232;-57
2021/05/24 10:45:33;;;;;;;1.95;1.10;;;25.60;52.80;;;;;;5092273;28;20204;-57
2021/05/24 10:48:00;;;;;;;1.40;1.10;;;25.50;52.10;;;;;;5092541;28;20208;-58
2021/05/24 10:50:29;;;;;;;2.63;1.50;;;25.40;52.10;;;;;;5092118;28;20582;-58
2021/05/24 10:52:59;;;;;;;2.35;1.80;;;25.20;53.60;;;;;;5092084;28;20316;-58
2021/05/24 10:55:36;;;;;;;1.40;0.80;;;25.20;52.90;;;;;;5091819;28;20242;-57
2021/05/24 10:58:05;;;;;;;2.65;0.52;;;25.20;53.10;;;;;;5092069;28;20208;-57
2021/05/24 11:00:59;;;;;;;2.22;0.70;;;25.30;53.10;;;;;;5091914;28;20253;-68
2021/05/24 11:03:25;;;;;;;1.50;0.70;;;25.40;52.10;;;;;;5091690;28;20232;-59
2021/05/24 11:06:10;;;;;;;2.00;0.50;;;25.30;52.10;;;;;;5091745;28;20211;-59
2021/05/24 11:08:39;;;;;;;0.75;0.55;;;25.30;51.90;;;;;;5091585;28;20721;-60
2021/05/24 11:11:18;;;;;;;1.90;0.90;;;25.20;51.60;;;;;;5091700;28;20231;-60
2021/05/24 11:13:53;;;;;;;1.50;0.80;;;25.20;51.30;;;;;;5091470;28;20215;-60
2021/05/24 11:16:19;;;;;;;1.00;0.68;;;25.00;51.70;;;;;;5091136;28;20690;-60
2021/05/24 11:18:46;;;;;;;1.98;0.77;;;24.90;51.30;;;;;;5091391;28;20200;-59
2021/05/24 11:21:26;;;;;;;1.40;1.00;;;24.80;51.50;;;;;;5091195;28;20646;-58
2021/05/24 11:29:47;;;;;;;21.50;19.42;;;24.50;52.90;;;;;;5129535;27;20578;-59
2021/05/24 11:32:19;;;;;;;4.22;2.75;;;24.30;53.60;;;;;;5129496;28;20245;-59
2021/05/24 11:34:45;;;;;;;3.03;2.15;;;24.40;53.60;;;;;;5129483;27;20391;-59
2021/05/24 11:37:11;;;;;;;6.88;6.22;;;24.60;53.70;;;;;;5129404;27;20203;-59
2021/05/24 11:39:45;;;;;;;5.90;5.40;;;24.80;53.00;;;;;;5146076;22;20191;-58
2021/05/24 11:42:19;;;;;;;3.15;1.40;;;24.90;53.20;;;;;;5069613;28;20205;-58
2021/05/24 11:44:48;;;;;;;3.10;0.90;;;25.00;52.80;;;;;;5069103;28;20212;-58
2021/05/24 11:47:16;;;;;;;1.77;0.70;;;25.10;53.00;;;;;;5068949;28;20233;-58
2021/05/24 11:49:45;;;;;;;1.85;0.75;;;24.90;53.60;;;;;;5068467;28;20235;-58
2021/05/24 11:52:12;;;;;;;1.13;0.70;;;24.90;53.60;;;;;;5068729;28;20209;-59
2021/05/24 11:54:39;;;;;;;0.93;0.75;;;25.10;53.00;;;;;;5068133;28;20212;-59
2021/05/24 11:57:07;;;;;;;1.13;0.73;;;25.40;52.20;;;;;;5068220;28;20200;-59
2021/05/24 11:59:34;;;;;;;0.93;0.75;;;25.70;51.80;;;;;;5067937;28;20213;-62
2021/05/24 12:02:03;;;;;;;1.08;0.93;;;25.50;52.50;;;;;;5068048;28;20737;-58
2021/05/24 12:04:31;;;;;;;1.48;0.63;;;25.70;52.30;;;;;;5068351;28;20201;-60
2021/05/24 12:07:01;;;;;;;1.55;0.85;;;25.90;50.50;;;;;;5068314;28;20205;-59
2021/05/24 12:09:36;;;;;;;1.48;0.70;;;26.00;50.30;;;;;;5067847;28;20224;-59
2021/05/24 12:12:05;;;;;;;2.00;1.00;;;26.40;49.20;;;;;;5068186;28;20288;-59
2021/05/24 12:14:33;;;;;;;5.68;4.53;;;26.50;48.20;;;;;;5067840;28;20201;-60
2021/05/24 12:17:00;;;;;;;1.65;1.00;;;26.60;46.70;;;;;;5068325;28;20259;-59
2021/05/24 12:19:27;;;;;;;1.83;0.93;;;26.70;47.70;;;;;;5067800;28;20254;-60
2021/05/24 12:21:57;;;;;;;3.45;2.85;;;26.80;47.20;;;;;;5068426;28;20687;-59
2021/05/24 12:24:23;;;;;;;1.17;0.80;;;27.00;46.80;;;;;;5067560;28;20205;-60
2021/05/24 12:26:52;;;;;;;0.68;0.68;;;27.20;46.90;;;;;;5067697;28;20205;-59
2021/05/24 12:29:26;;;;;;;2.13;1.67;;;27.10;47.20;;;;;;5067763;28;20229;-60
2021/05/24 12:31:55;;;;;;;1.23;0.95;;;26.40;47.70;;;;;;5067643;28;20200;-59
2021/05/24 12:34:30;;;;;;;0.82;0.60;;;26.30;48.60;;;;;;5067616;28;20266;-58
2021/05/24 12:36:58;;;;;;;1.02;0.63;;;26.30;49.00;;;;;;5067534;28;20212;-59
2021/05/24 12:39:27;;;;;;;0.82;0.60;;;26.50;46.70;;;;;;5062900;28;20201;-59
2021/05/24 12:41:56;;;;;;;2.55;0.60;;;26.70;45.00;;;;;;5051963;28;20205;-59
2021/05/24 12:44:24;;;;;;;1.85;0.80;;;26.90;45.00;;;;;;5054319;28;20210;-61
2021/05/24 12:46:52;;;;;;;2.85;0.75;;;27.00;45.20;;;;;;5054700;28;20205;-61
2021/05/24 12:49:21;;;;;;;11.02;7.65;;;27.10;44.40;;;;;;5053835;28;20233;-62
2021/05/24 12:51:57;;;;;;;3.60;3.22;;;27.20;44.30;;;;;;5054234;28;20233;-59
2021/05/24 12:54:24;;;;;;;3.22;1.13;;;27.20;44.90;;;;;;5054058;28;20213;-59
2021/05/24 12:56:50;;;;;;;1.23;0.60;;;27.30;44.30;;;;;;5054271;28;20205;-59
2021/05/24 12:59:18;;;;;;;1.50;0.50;;;27.30;44.00;;;;;;5053873;28;20201;-60